Time;durP1;ratioP1;P1;durP2;ratioP2;P2;SDS_P1;SDS_P2;PMS_P1;PMS_P2;Temp;Humidity;BMP_temperature;BMP_pressure;BME280_temperature;BME280_humidity;BME280_pressure;Samples;Min_cycle;Max_cycle;Signal;HPM_P1;HPM_P2
2022/09/05 00:02:02;;;;;;;;;;;24.50;78.50;;;;;;4987004;28;19936;-59
2022/09/05 00:04:47;;;;;;;;;;;24.50;78.50;;;;;;4995455;28;19931;-59
2022/09/05 00:07:15;;;;;;;;;;;24.50;78.50;;;;;;4995994;28;19937;-56
2022/09/05 00:10:15;;;;;;;;;;;24.50;78.50;;;;;;5002289;28;20401;-57
2022/09/05 00:12:42;;;;;;;;;;;24.50;78.50;;;;;;4996325;28;20445;-59
2022/09/05 00:15:15;;;;;;;;;;;24.50;78.50;;;;;;4996540;28;19930;-59
2022/09/05 00:18:04;;;;;;;;;;;24.50;78.50;;;;;;5016327;28;20427;-61
2022/09/05 00:20:57;;;;;;;;;;;24.50;78.50;;;;;;4992685;28;19930;-56
2022/09/05 00:23:57;;;;;;;;;;;24.50;78.50;;;;;;5001766;28;19937;-56
2022/09/05 00:27:02;;;;;;;;;;;24.50;78.50;;;;;;5001102;28;20313;-56
2022/09/05 00:29:44;;;;;;;;;;;24.40;78.50;;;;;;4998941;28;20301;-60
2022/09/05 00:32:31;;;;;;;;;;;24.40;78.50;;;;;;4989892;28;19937;-59
2022/09/05 00:35:18;;;;;;;;;;;24.50;79.10;;;;;;4992472;28;19938;-60
2022/09/05 00:37:46;;;;;;;;;;;24.40;78.50;;;;;;4993789;28;19934;-56
2022/09/05 00:40:24;;;;;;;;;;;24.40;78.50;;;;;;4989133;28;19930;-59
2022/09/05 00:42:56;;;;;;;;;;;24.40;78.50;;;;;;4983076;28;19929;-59
2022/09/05 00:45:34;;;;;;;;;;;24.40;78.50;;;;;;4986168;28;20310;-58
2022/09/05 00:48:15;;;;;;;;;;;24.40;78.50;;;;;;4998569;28;20448;-60
2022/09/05 00:50:42;;;;;;;;;;;24.40;78.50;;;;;;4982967;28;19925;-59
2022/09/05 00:53:09;;;;;;;;;;;24.40;78.50;;;;;;5006948;28;19933;-61
2022/09/05 00:55:40;;;;;;;;;;;24.40;78.50;;;;;;4988954;28;19930;-58
2022/09/05 00:58:15;;;;;;;;;;;24.40;78.50;;;;;;4991488;28;19930;-59
2022/09/05 01:00:57;;;;;;;;;;;24.40;78.50;;;;;;4989397;28;20326;-57
2022/09/05 01:03:28;;;;;;;;;;;24.40;78.50;;;;;;4992543;28;19934;-59
2022/09/05 01:06:14;;;;;;;;;;;24.40;78.60;;;;;;4989036;28;19937;-58
2022/09/05 01:09:00;;;;;;;;;;;24.40;78.60;;;;;;4982058;28;19936;-61
2022/09/05 01:11:49;;;;;;;;;;;24.40;78.50;;;;;;4995115;28;19941;-54
2022/09/05 01:14:28;;;;;;;;;;;24.40;78.50;;;;;;4992632;28;20413;-56
2022/09/05 01:16:58;;;;;;;;;;;24.40;78.50;;;;;;4993027;28;20430;-57
2022/09/05 01:19:25;;;;;;;;;;;24.40;78.60;;;;;;4988395;28;20337;-57
2022/09/05 01:22:08;;;;;;;;;;;24.30;78.50;;;;;;4988943;28;20390;-55
2022/09/05 01:24:50;;;;;;;;;;;24.30;78.50;;;;;;4987023;28;20413;-58
2022/09/05 01:27:29;;;;;;;;;;;24.30;78.50;;;;;;4990578;28;19930;-60
2022/09/05 01:30:19;;;;;;;;;;;24.40;78.60;;;;;;4989558;28;19930;-58
2022/09/05 01:32:52;;;;;;;;;;;24.40;78.60;;;;;;4999400;28;20320;-59
2022/09/05 01:35:40;;;;;;;;;;;24.40;78.60;;;;;;4989057;28;19937;-59
2022/09/05 01:38:39;;;;;;;;;;;24.30;78.60;;;;;;4990948;28;19929;-59
2022/09/05 01:41:20;;;;;;;;;;;24.30;78.60;;;;;;4997064;28;19929;-59
2022/09/05 01:44:04;;;;;;;;;;;24.30;78.60;;;;;;4993098;28;19955;-57
2022/09/05 01:46:33;;;;;;;;;;;24.30;78.60;;;;;;4986746;28;19936;-59
2022/09/05 01:49:23;;;;;;;;;;;24.30;78.60;;;;;;4994151;28;19937;-57
2022/09/05 01:51:53;;;;;;;;;;;24.30;78.60;;;;;;4999710;28;20424;-59
2022/09/05 01:54:32;;;;;;;;;;;24.30;78.60;;;;;;4990388;28;19926;-58
2022/09/05 01:57:06;;;;;;;;;;;24.30;78.60;;;;;;4996992;28;20472;-57
2022/09/05 01:59:39;;;;;;;;;;;24.30;78.70;;;;;;4995314;28;19925;-57
2022/09/05 02:02:30;;;;;;;;;;;24.30;78.70;;;;;;4998618;28;19937;-55
2022/09/05 02:05:00;;;;;;;;;;;24.30;78.70;;;;;;5017419;28;19929;-58
2022/09/05 02:07:51;;;;;;;;;;;24.30;78.70;;;;;;5007200;28;20759;-60
2022/09/05 02:10:37;;;;;;;;;;;24.30;78.70;;;;;;4994497;28;19934;-58
2022/09/05 02:13:23;;;;;;;;;;;24.30;78.70;;;;;;4992204;28;19929;-57
2022/09/05 02:15:51;;;;;;;;;;;24.30;78.70;;;;;;4994517;28;20344;-59
2022/09/05 02:18:45;;;;;;;;;;;24.30;78.70;;;;;;4987096;28;19930;-60
2022/09/05 02:21:22;;;;;;;;;;;24.30;78.70;;;;;;4997403;28;19929;-57
2022/09/05 02:24:00;;;;;;;;;;;24.20;78.70;;;;;;4998519;28;20419;-59
2022/09/05 02:26:33;;;;;;;;;;;24.30;78.70;;;;;;4996019;28;19929;-55
2022/09/05 02:29:06;;;;;;;;;;;24.30;78.70;;;;;;4987264;28;19926;-59
2022/09/05 02:31:41;;;;;;;;;;;24.20;78.70;;;;;;4985118;28;19929;-56
2022/09/05 02:34:08;;;;;;;;;;;24.30;78.70;;;;;;4992332;28;19934;-60
2022/09/05 02:36:42;;;;;;;;;;;24.30;78.70;;;;;;5000214;28;19933;-58
2022/09/05 02:39:27;;;;;;;;;;;24.20;78.70;;;;;;4995103;28;19949;-59
2022/09/05 02:42:29;;;;;;;;;;;24.30;78.70;;;;;;4996427;28;19929;-57
2022/09/05 02:45:21;;;;;;;;;;;24.20;78.70;;;;;;5002675;28;19933;-56
2022/09/05 02:48:06;;;;;;;;;;;24.30;78.80;;;;;;4989988;28;19930;-60
2022/09/05 02:50:42;;;;;;;;;;;24.20;78.70;;;;;;4993800;28;20461;-58
2022/09/05 02:53:29;;;;;;;;;;;24.20;78.70;;;;;;4996375;28;19968;-58
2022/09/05 02:56:16;;;;;;;;;;;24.20;78.70;;;;;;4994634;28;19930;-56
2022/09/05 02:59:03;;;;;;;;;;;24.20;78.70;;;;;;4988385;28;19930;-59
2022/09/05 03:01:37;;;;;;;;;;;24.20;78.70;;;;;;4990045;28;19980;-58
2022/09/05 03:04:10;;;;;;;;;;;24.20;79.00;;;;;;5001506;28;19929;-54
2022/09/05 03:07:01;;;;;;;;;;;24.20;78.80;;;;;;4996082;28;19936;-57
2022/09/05 03:09:47;;;;;;;;;;;24.20;78.80;;;;;;4993262;28;19933;-55
2022/09/05 03:12:17;;;;;;;;;;;24.20;78.70;;;;;;4993154;28;19929;-58
2022/09/05 03:15:00;;;;;;;;;;;24.20;78.80;;;;;;4996075;28;20113;-56
2022/09/05 03:17:34;;;;;;;;;;;24.20;78.80;;;;;;4992304;28;19940;-60
2022/09/05 03:20:10;;;;;;;;;;;24.20;78.80;;;;;;4994166;28;20425;-56
2022/09/05 03:23:01;;;;;;;;;;;24.20;78.80;;;;;;4992168;28;19930;-59
2022/09/05 03:25:39;;;;;;;;;;;24.20;78.80;;;;;;4989429;28;19933;-57
2022/09/05 03:28:30;;;;;;;;;;;24.20;78.80;;;;;;4989841;28;20322;-61
2022/09/05 03:30:57;;;;;;;;;;;24.20;78.80;;;;;;4983802;28;20390;-57
2022/09/05 03:33:35;;;;;;;;;;;24.20;78.80;;;;;;4998754;28;19933;-56
2022/09/05 03:36:21;;;;;;;;;;;24.20;78.90;;;;;;4997270;28;19925;-59
2022/09/05 03:38:48;;;;;;;;;;;24.20;78.80;;;;;;4998776;28;19930;-58
2022/09/05 03:41:15;;;;;;;;;;;24.20;78.90;;;;;;4991742;28;20321;-57
2022/09/05 03:44:01;;;;;;;;;;;24.20;78.80;;;;;;4993958;28;19932;-59
2022/09/05 03:46:39;;;;;;;;;;;24.20;78.80;;;;;;4991999;28;20665;-60
2022/09/05 03:49:19;;;;;;;;;;;24.10;78.80;;;;;;4989655;28;20348;-58
2022/09/05 03:52:24;;;;;;;;;;;24.10;78.80;;;;;;4992930;28;19930;-58
2022/09/05 03:55:15;;;;;;;;;;;24.10;78.80;;;;;;4985880;28;19930;-58
2022/09/05 03:58:08;;;;;;;;;;;24.10;78.90;;;;;;4988853;28;19937;-56
2022/09/05 04:01:09;;;;;;;;;;;24.10;78.90;;;;;;4989731;28;19929;-60
2022/09/05 04:03:59;;;;;;;;;;;24.10;78.90;;;;;;4991045;28;19929;-62
2022/09/05 04:06:57;;;;;;;;;;;24.10;78.90;;;;;;4996863;28;19936;-59
2022/09/05 04:09:56;;;;;;;;;;;24.10;78.90;;;;;;4995536;28;20307;-58
2022/09/05 04:12:29;;;;;;;;;;;24.10;78.90;;;;;;4995687;28;19937;-56
2022/09/05 04:15:00;;;;;;;;;;;24.10;78.90;;;;;;4983365;28;19937;-57
2022/09/05 04:17:39;;;;;;;;;;;24.00;78.80;;;;;;4993193;28;19941;-58
2022/09/05 04:20:11;;;;;;;;;;;24.10;78.90;;;;;;4995833;28;19937;-58
2022/09/05 04:22:47;;;;;;;;;;;24.10;78.90;;;;;;4989103;28;19929;-57
2022/09/05 04:25:20;;;;;;;;;;;24.10;78.90;;;;;;4992564;28;19929;-54
2022/09/05 04:28:06;;;;;;;;;;;24.10;78.90;;;;;;5017198;28;19930;-60
2022/09/05 04:30:44;;;;;;;;;;;24.10;78.90;;;;;;4985460;28;20293;-55
2022/09/05 04:33:14;;;;;;;;;;;24.10;78.90;;;;;;4995314;28;19929;-60
2022/09/05 04:35:55;;;;;;;;;;;24.10;78.90;;;;;;4989235;28;20757;-59
2022/09/05 04:38:51;;;;;;;;;;;24.00;78.90;;;;;;4989500;28;19930;-58
2022/09/05 04:41:22;;;;;;;;;;;24.00;78.90;;;;;;4983059;28;19929;-60
2022/09/05 04:44:11;;;;;;;;;;;24.10;79.00;;;;;;4989993;28;19953;-59
2022/09/05 04:46:42;;;;;;;;;;;24.00;78.90;;;;;;4995612;28;19937;-60
2022/09/05 04:49:17;;;;;;;;;;;24.00;78.90;;;;;;4995934;28;19929;-61
2022/09/05 04:51:55;;;;;;;;;;;24.00;78.90;;;;;;4996316;28;19929;-55
2022/09/05 04:54:27;;;;;;;;;;;24.00;78.90;;;;;;4993610;28;19930;-57
2022/09/05 04:57:02;;;;;;;;;;;24.00;79.00;;;;;;4992335;28;19930;-61
2022/09/05 04:59:40;;;;;;;;;;;24.00;78.90;;;;;;5017943;28;19949;-59
2022/09/05 05:02:38;;;;;;;;;;;24.00;78.90;;;;;;4997885;28;19934;-58
2022/09/05 05:05:40;;;;;;;;;;;24.00;79.00;;;;;;4993232;28;20585;-61
2022/09/05 05:08:27;;;;;;;;;;;24.00;79.00;;;;;;4993798;28;19941;-59
2022/09/05 05:11:12;;;;;;;;;;;24.00;79.00;;;;;;4990176;28;19937;-60
2022/09/05 05:14:08;;;;;;;;;;;24.00;79.00;;;;;;4986766;28;19930;-59
2022/09/05 05:17:03;;;;;;;;;;;24.00;79.00;;;;;;4984225;28;19929;-56
2022/09/05 05:20:00;;;;;;;;;;;24.00;79.00;;;;;;4982860;28;20476;-57
2022/09/05 05:23:07;;;;;;;;;;;24.00;79.00;;;;;;4989151;28;19929;-57
2022/09/05 05:25:43;;;;;;;;;;;24.00;79.00;;;;;;4991620;28;19936;-59
2022/09/05 05:28:12;;;;;;;;;;;24.00;79.00;;;;;;5004256;28;19933;-59
2022/09/05 05:30:51;;;;;;;;;;;24.00;79.00;;;;;;4997705;28;19934;-58
2022/09/05 05:33:35;;;;;;;;;;;24.00;79.00;;;;;;5003870;28;19934;-61
2022/09/05 05:36:05;;;;;;;;;;;24.00;79.70;;;;;;5006540;28;20296;-57
2022/09/05 05:38:32;;;;;;;;;;;24.00;79.10;;;;;;5003562;28;19929;-61
2022/09/05 05:41:09;;;;;;;;;;;24.00;79.00;;;;;;4999574;28;20605;-56
2022/09/05 05:43:37;;;;;;;;;;;24.00;79.00;;;;;;4986987;28;19930;-58
2022/09/05 05:46:11;;;;;;;;;;;24.00;79.00;;;;;;5009282;28;20290;-60
2022/09/05 05:48:39;;;;;;;;;;;24.00;79.00;;;;;;5012162;28;19930;-56
2022/09/05 05:51:12;;;;;;;;;;;23.90;79.00;;;;;;5021160;28;19936;-60
2022/09/05 05:53:58;;;;;;;;;;;24.00;79.00;;;;;;5003593;28;19929;-60
2022/09/05 05:56:44;;;;;;;;;;;23.90;79.00;;;;;;4996107;28;19930;-60
2022/09/05 05:59:25;;;;;;;;;;;24.00;79.00;;;;;;5009029;28;19944;-57
2022/09/05 06:01:58;;;;;;;;;;;24.00;79.00;;;;;;5007441;28;19952;-57
2022/09/05 06:04:28;;;;;;;;;;;24.00;79.00;;;;;;5000345;28;19926;-59
2022/09/05 06:07:01;;;;;;;;;;;24.00;79.10;;;;;;5007559;28;19930;-59
2022/09/05 06:09:34;;;;;;;;;;;24.00;79.10;;;;;;4996744;28;19930;-59
2022/09/05 06:12:40;;;;;;;;;;;24.00;79.10;;;;;;4990652;28;19929;-59
2022/09/05 06:15:33;;;;;;;;;;;23.90;79.00;;;;;;4999545;28;19940;-59
2022/09/05 06:18:17;;;;;;;;;;;24.00;79.10;;;;;;5013232;28;19929;-61
2022/09/05 06:21:16;;;;;;;;;;;23.90;79.10;;;;;;4981471;28;19930;-58
2022/09/05 06:24:23;;;;;;;;;;;23.90;79.10;;;;;;4966640;28;20572;-60
2022/09/05 06:26:56;;;;;;;;;;;24.00;79.10;;;;;;4995136;28;19932;-58
2022/09/05 06:29:54;;;;;;;;;;;23.90;79.10;;;;;;4998291;28;19929;-60
2022/09/05 06:32:36;;;;;;;;;;;24.00;79.10;;;;;;4996439;28;19941;-59
2022/09/05 06:35:15;;;;;;;;;;;23.90;79.10;;;;;;4996496;28;19930;-60
2022/09/05 06:37:45;;;;;;;;;;;24.00;79.20;;;;;;4994761;28;19930;-60
2022/09/05 06:40:31;;;;;;;;;;;23.90;79.10;;;;;;4985873;28;19937;-60
2022/09/05 06:42:59;;;;;;;;;;;23.90;79.20;;;;;;4992493;28;20333;-59
2022/09/05 06:45:26;;;;;;;;;;;23.90;79.10;;;;;;5001954;28;19935;-61
2022/09/05 06:48:00;;;;;;;;;;;23.90;79.10;;;;;;4997165;28;19997;-57
2022/09/05 06:50:48;;;;;;;;;;;23.90;79.10;;;;;;4992080;28;19941;-61
2022/09/05 06:53:45;;;;;;;;;;;24.00;79.20;;;;;;4992248;28;20424;-59
2022/09/05 06:56:12;;;;;;;;;;;24.00;79.20;;;;;;4997363;28;19934;-56
2022/09/05 06:59:10;;;;;;;;;;;24.00;79.20;;;;;;4983164;28;19933;-59
2022/09/05 07:01:46;;;;;;;;;;;24.00;79.20;;;;;;4983878;28;19929;-61
2022/09/05 07:04:36;;;;;;;;;;;24.00;79.20;;;;;;4998575;28;19934;-58
2022/09/05 07:07:29;;;;;;;;;;;24.00;79.20;;;;;;4999418;28;20290;-58
2022/09/05 07:10:05;;;;;;;;;;;24.00;79.20;;;;;;4990911;28;19930;-58
2022/09/05 07:12:58;;;;;;;;;;;24.00;79.30;;;;;;4995467;28;20286;-60
2022/09/05 07:15:32;;;;;;;;;;;24.00;79.30;;;;;;5000703;28;20488;-59
2022/09/05 07:17:59;;;;;;;;;;;24.00;79.30;;;;;;4990423;28;20321;-58
2022/09/05 07:20:46;;;;;;;;;;;24.00;79.30;;;;;;4999323;28;19930;-60
2022/09/05 07:23:35;;;;;;;;;;;24.10;79.40;;;;;;4989334;28;19937;-59
2022/09/05 07:26:23;;;;;;;;;;;24.00;79.40;;;;;;4992274;28;20285;-62
2022/09/05 07:29:13;;;;;;;;;;;24.10;79.50;;;;;;4994564;28;19926;-59
2022/09/05 07:31:42;;;;;;;;;;;24.10;79.50;;;;;;4988740;28;19949;-58
2022/09/05 07:34:23;;;;;;;;;;;24.10;79.50;;;;;;4989708;28;19952;-59
2022/09/05 07:36:52;;;;;;;;;;;24.20;79.60;;;;;;5005598;28;19932;-58
2022/09/05 07:39:42;;;;;;;;;;;24.20;80.20;;;;;;4999498;28;19937;-60
2022/09/05 07:42:14;;;;;;;;;;;24.10;79.50;;;;;;4992183;28;20554;-58
2022/09/05 07:44:55;;;;;;;;;;;24.20;79.70;;;;;;4988709;28;19938;-59
2022/09/05 07:47:25;;;;;;;;;;;24.20;79.70;;;;;;4992477;28;19930;-58
2022/09/05 07:49:52;;;;;;;;;;;24.20;79.70;;;;;;4992790;28;19929;-60
2022/09/05 07:52:41;;;;;;;;;;;24.20;79.70;;;;;;4983792;28;19926;-58
2022/09/05 07:55:29;;;;;;;;;;;24.20;79.70;;;;;;4994866;28;20519;-60
2022/09/05 07:58:19;;;;;;;;;;;24.20;79.70;;;;;;4995090;28;20432;-56
2022/09/05 08:00:50;;;;;;;;;;;24.20;79.70;;;;;;5004796;28;19925;-59
2022/09/05 08:03:21;;;;;;;;;;;24.20;79.70;;;;;;4995424;28;19937;-58
2022/09/05 08:05:52;;;;;;;;;;;24.20;79.70;;;;;;4993051;28;19930;-58
2022/09/05 08:08:22;;;;;;;;;;;24.20;79.80;;;;;;5002026;28;19953;-59
2022/09/05 08:10:54;;;;;;;;;;;24.20;79.70;;;;;;4985143;28;19937;-58
2022/09/05 08:13:45;;;;;;;;;;;24.20;79.70;;;;;;4980790;28;19929;-56
2022/09/05 08:16:16;;;;;;;;;;;24.20;79.70;;;;;;4999365;28;19925;-58
2022/09/05 08:18:48;;;;;;;;;;;24.20;79.70;;;;;;4993534;28;19930;-59
2022/09/05 08:21:20;;;;;;;;;;;24.20;79.70;;;;;;4985832;28;19934;-58
2022/09/05 08:23:56;;;;;;;;;;;24.20;79.70;;;;;;4989104;28;20417;-57
2022/09/05 08:26:26;;;;;;;;;;;24.30;79.70;;;;;;4998779;28;20427;-59
2022/09/05 08:29:10;;;;;;;;;;;24.20;79.70;;;;;;4983695;28;19929;-58
2022/09/05 08:31:46;;;;;;;;;;;24.30;79.80;;;;;;4984623;28;19930;-58
2022/09/05 08:34:20;;;;;;;;;;;24.30;79.80;;;;;;4993826;28;20619;-59
2022/09/05 08:36:59;;;;;;;;;;;24.30;79.80;;;;;;5016622;28;19937;-58
2022/09/05 08:39:28;;;;;;;;;;;24.30;79.80;;;;;;4993050;28;19930;-58
2022/09/05 08:42:01;;;;;;;;;;;24.30;79.80;;;;;;5002526;28;19930;-60
2022/09/05 08:44:39;;;;;;;;;;;24.30;80.40;;;;;;4998892;28;19933;-58
2022/09/05 08:47:26;;;;;;;;;;;24.30;79.80;;;;;;4987973;28;19938;-50
2022/09/05 08:50:18;;;;;;;;;;;24.30;79.80;;;;;;4996412;28;19926;-56
2022/09/05 08:52:45;;;;;;;;;;;24.30;79.80;;;;;;4991754;28;19941;-58
2022/09/05 08:55:12;;;;;;;;;;;24.30;79.80;;;;;;4992536;28;19933;-59
2022/09/05 08:57:42;;;;;;;;;;;24.30;79.70;;;;;;4991132;28;19953;-59
2022/09/05 09:00:10;;;;;;;;;;;24.30;79.80;;;;;;4997983;28;19945;-59
2022/09/05 09:02:56;;;;;;;;;;;24.30;79.80;;;;;;4992572;28;19929;-56
2022/09/05 09:05:49;;;;;;;;;;;24.30;79.80;;;;;;5002758;28;19933;-59
2022/09/05 09:08:48;;;;;;;;;;;24.30;79.80;;;;;;4984486;28;19937;-60
2022/09/05 09:11:33;;;;;;;;;;;24.40;79.90;;;;;;4999055;28;20409;-57
2022/09/05 09:14:21;;;;;;;;;;;24.30;79.80;;;;;;4995409;28;20443;-58
2022/09/05 09:17:03;;;;;;;;;;;24.40;79.90;;;;;;5003415;28;20317;-57
2022/09/05 09:19:31;;;;;;;;;;;24.30;79.80;;;;;;4995070;28;19925;-59
2022/09/05 09:22:11;;;;;;;;;;;24.40;79.90;;;;;;4996962;28;19925;-57
2022/09/05 09:24:45;;;;;;;;;;;24.30;79.80;;;;;;4992122;28;19929;-59
2022/09/05 09:27:35;;;;;;;;;;;24.40;79.90;;;;;;4994795;28;20523;-60
2022/09/05 09:30:25;;;;;;;;;;;24.30;79.80;;;;;;5010598;28;20317;-59
2022/09/05 09:32:54;;;;;;;;;;;24.40;79.80;;;;;;4988599;28;19937;-56
2022/09/05 09:35:25;;;;;;;;;;;24.40;79.80;;;;;;4991424;28;19937;-59
2022/09/05 09:37:59;;;;;;;;;;;24.40;79.80;;;;;;4996122;28;19930;-58
2022/09/05 09:40:52;;;;;;;;;;;24.40;79.80;;;;;;4992873;28;20048;-61
2022/09/05 09:43:32;;;;;;;;;;;24.40;79.70;;;;;;5007622;28;19930;-57
2022/09/05 09:46:10;;;;;;;;;;;24.40;79.80;;;;;;4999841;28;19941;-58
2022/09/05 09:48:43;;;;;;;;;;;24.40;79.80;;;;;;4991701;28;19964;-58
2022/09/05 09:51:18;;;;;;;;;;;24.40;79.80;;;;;;4990545;28;19930;-61
2022/09/05 09:53:57;;;;;;;;;;;24.40;79.80;;;;;;4996604;28;19934;-60
2022/09/05 09:56:49;;;;;;;;;;;24.40;79.80;;;;;;4994360;28;19930;-60
2022/09/05 09:59:32;;;;;;;;;;;24.40;79.90;;;;;;4996080;28;19929;-61
2022/09/05 10:02:03;;;;;;;;;;;24.40;79.80;;;;;;4996338;28;19930;-61
2022/09/05 10:05:10;;;;;;;;;;;24.40;79.80;;;;;;4998800;28;19936;-61
2022/09/05 10:08:06;;;;;;;;;;;24.40;79.70;;;;;;4995663;28;19933;-60
2022/09/05 10:11:12;;;;;;;;;;;24.50;79.80;;;;;;4997496;28;19936;-59
2022/09/05 10:14:18;;;;;;;;;;;24.50;79.70;;;;;;4990115;28;19941;-60
2022/09/05 10:17:06;;;;;;;;;;;24.50;79.80;;;;;;5008537;28;19976;-61
2022/09/05 10:19:37;;;;;;;;;;;24.50;79.80;;;;;;4998619;28;19941;-61
2022/09/05 10:22:43;;;;;;;;;;;24.50;79.80;;;;;;4992712;28;19952;-58
2022/09/05 10:25:16;;;;;;;;;;;24.50;79.80;;;;;;5009244;28;20410;-61
2022/09/05 10:27:51;;;;;;;;;;;24.50;79.70;;;;;;5004715;28;19929;-65
2022/09/05 10:30:21;;;;;;;;;;;24.50;79.80;;;;;;4997993;28;19929;-62
2022/09/05 10:33:26;;;;;;;;;;;24.50;79.80;;;;;;4997463;28;19930;-60
2022/09/05 10:36:21;;;;;;;;;;;24.50;79.80;;;;;;5006017;28;19934;-59
2022/09/05 10:38:51;;;;;;;;;;;24.50;79.80;;;;;;4994370;28;20222;-60
2022/09/05 10:41:21;;;;;;;;;;;24.50;79.80;;;;;;4999316;28;19937;-60
2022/09/05 10:43:53;;;;;;;;;;;24.50;79.80;;;;;;4991264;28;20323;-62
2022/09/05 10:46:25;;;;;;;;;;;24.50;79.80;;;;;;4996154;28;20309;-59
2022/09/05 10:49:13;;;;;;;;;;;24.50;79.90;;;;;;4994401;28;19930;-61
2022/09/05 10:51:59;;;;;;;;;;;24.50;79.80;;;;;;4998353;28;19930;-56
2022/09/05 10:55:08;;;;;;;;;;;24.50;79.80;;;;;;4996224;28;19944;-56
2022/09/05 10:57:44;;;;;;;;;;;24.50;79.80;;;;;;4977817;28;19929;-60
2022/09/05 11:00:32;;;;;;;;;;;24.50;79.90;;;;;;4995573;28;19937;-57
2022/09/05 11:03:21;;;;;;;;;;;24.50;79.90;;;;;;4996701;28;19929;-60
2022/09/05 11:06:00;;;;;;;;;;;24.50;79.80;;;;;;4988054;28;19937;-62
2022/09/05 11:08:44;;;;;;;;;;;24.50;79.80;;;;;;4990807;28;19937;-63
2022/09/05 11:11:18;;;;;;;;;;;24.50;79.90;;;;;;4979444;28;19934;-61
2022/09/05 11:14:02;;;;;;;;;;;24.50;79.90;;;;;;4995440;28;19933;-61
2022/09/05 11:16:48;;;;;;;;;;;24.60;79.90;;;;;;4997605;28;19929;-59
2022/09/05 11:19:25;;;;;;;;;;;24.50;79.90;;;;;;4991456;28;20297;-60
2022/09/05 11:22:00;;;;;;;;;;;24.50;79.90;;;;;;4998360;28;19930;-58
2022/09/05 11:24:42;;;;;;;;;;;24.60;79.90;;;;;;4997931;28;19929;-61
2022/09/05 11:27:24;;;;;;;;;;;24.60;80.00;;;;;;4999922;28;19969;-59
2022/09/05 11:29:54;;;;;;;;;;;24.50;79.90;;;;;;4997839;28;19953;-62
2022/09/05 11:32:42;;;;;;;;;;;24.60;79.90;;;;;;4982562;28;19930;-59
2022/09/05 11:35:36;;;;;;;;;;;24.60;80.00;;;;;;4992832;28;20317;-61
2022/09/05 11:38:24;;;;;;;;;;;24.50;79.90;;;;;;4982366;28;19934;-61
2022/09/05 11:41:23;;;;;;;;;;;24.50;79.90;;;;;;4997279;28;19934;-59
2022/09/05 11:43:52;;;;;;;;;;;24.60;79.90;;;;;;4983779;28;19930;-62
2022/09/05 11:46:59;;;;;;;;;;;24.60;80.00;;;;;;4983124;28;19956;-58
2022/09/05 11:49:46;;;;;;;;;;;24.50;79.90;;;;;;4993152;28;19936;-61
2022/09/05 11:52:32;;;;;;;;;;;24.60;79.90;;;;;;5000331;28;20574;-60
2022/09/05 11:55:15;;;;;;;;;;;24.60;79.90;;;;;;4984987;28;19937;-61
2022/09/05 11:57:56;;;;;;;;;;;24.60;79.90;;;;;;5004476;28;19937;-60
2022/09/05 12:00:38;;;;;;;;;;;24.60;79.90;;;;;;4997877;28;19940;-61
2022/09/05 12:03:18;;;;;;;;;;;24.60;79.90;;;;;;4998719;28;19930;-61
2022/09/05 12:06:06;;;;;;;;;;;24.60;79.80;;;;;;5011085;28;20325;-58
2022/09/05 12:08:51;;;;;;;;;;;24.60;79.80;;;;;;4986996;28;20325;-59
2022/09/05 12:11:48;;;;;;;;;;;24.60;79.80;;;;;;5004626;28;20397;-60
2022/09/05 12:14:15;;;;;;;;;;;24.60;79.70;;;;;;4988724;28;19936;-63
2022/09/05 12:17:03;;;;;;;;;;;24.60;79.70;;;;;;5003575;28;19929;-61
2022/09/05 12:19:46;;;;;;;;;;;24.60;79.70;;;;;;4998216;28;19926;-63
2022/09/05 12:22:22;;;;;;;;;;;24.60;79.70;;;;;;5016622;28;20240;-61
2022/09/05 12:25:09;;;;;;;;;;;24.60;79.70;;;;;;4994693;28;20623;-62
2022/09/05 12:28:06;;;;;;;;;;;24.60;79.70;;;;;;4986026;28;19933;-59
2022/09/05 12:31:08;;;;;;;;;;;24.60;79.70;;;;;;4993514;28;19929;-60
2022/09/05 12:33:59;;;;;;;;;;;24.60;79.60;;;;;;4992435;28;19929;-59
2022/09/05 12:36:48;;;;;;;;;;;24.60;79.70;;;;;;5003119;28;19929;-61
2022/09/05 12:39:47;;;;;;;;;;;24.60;79.60;;;;;;4999297;28;19944;-58
2022/09/05 12:43:00;;;;;;;;;;;24.60;79.70;;;;;;5002369;28;19936;-59
2022/09/05 12:45:52;;;;;;;;;;;24.60;79.60;;;;;;4966335;28;19937;-51
2022/09/05 12:48:28;;;;;;;;;;;24.70;80.20;;;;;;4976318;28;19930;-50
2022/09/05 12:51:07;;;;;;;;;;;24.70;79.60;;;;;;4963931;28;20060;-52
2022/09/05 12:53:42;;;;;;;;;;;24.70;79.50;;;;;;4966372;28;20424;-54
2022/09/05 12:56:29;;;;;;;;;;;24.70;79.60;;;;;;4969495;28;19930;-51
2022/09/05 12:59:19;;;;;;;;;;;24.70;79.60;;;;;;4956308;28;20526;-55
2022/09/05 13:02:08;;;;;;;;;;;24.80;79.50;;;;;;4969374;28;19937;-54
2022/09/05 13:05:00;;;;;;;;;;;24.80;79.50;;;;;;4969030;28;19933;-56
2022/09/05 13:07:57;;;;;;;;;;;24.80;79.50;;;;;;4976652;28;19929;-52
2022/09/05 13:10:32;;;;;;;;;;;24.80;79.40;;;;;;4952977;28;19938;-53
2022/09/05 13:13:28;;;;;;;;;;;24.90;79.40;;;;;;4978082;28;19937;-52
2022/09/05 13:16:23;;;;;;;;;;;24.90;79.30;;;;;;4964227;28;19950;-51
2022/09/05 13:18:55;;;;;;;;;;;24.90;79.40;;;;;;4974987;28;19942;-56
2022/09/05 13:21:27;;;;;;;;;;;25.00;79.40;;;;;;4952930;28;19930;-54
2022/09/05 13:24:11;;;;;;;;;;;25.00;79.30;;;;;;4963527;28;19935;-54
2022/09/05 13:26:41;;;;;;;;;;;25.00;79.30;;;;;;4979669;28;19932;-53
2022/09/05 13:29:18;;;;;;;;;;;24.90;79.30;;;;;;4966810;28;19930;-53
2022/09/05 13:31:52;;;;;;;;;;;25.00;79.50;;;;;;4975416;28;19933;-55
2022/09/05 13:34:45;;;;;;;;;;;25.00;79.30;;;;;;4979351;28;20386;-58
2022/09/05 13:37:37;;;;;;;;;;;25.00;79.20;;;;;;4973119;28;20389;-56
2022/09/05 13:40:25;;;;;;;;;;;25.10;79.10;;;;;;4974898;28;20326;-54
2022/09/05 13:43:20;;;;;;;;;;;25.20;79.10;;;;;;4981248;28;20029;-56
2022/09/05 13:45:52;;;;;;;;;;;25.20;78.90;;;;;;4972214;28;19937;-60
2022/09/05 13:48:28;;;;;;;;;;;25.30;78.80;;;;;;4979500;28;19937;-51
2022/09/05 13:51:01;;;;;;;;;;;25.30;79.40;;;;;;4965247;28;19926;-56
2022/09/05 13:53:33;;;;;;;;;;;25.40;78.70;;;;;;4968087;28;19934;-53
2022/09/05 13:56:22;;;;;;;;;;;25.40;78.60;;;;;;4976711;28;20469;-53
2022/09/05 13:58:52;;;;;;;;;;;25.40;78.50;;;;;;4953285;28;19926;-52
2022/09/05 14:01:35;;;;;;;;;;;25.50;78.50;;;;;;4962313;28;19927;-55
2022/09/05 14:04:10;;;;;;;;;;;25.60;78.50;;;;;;4963864;28;20303;-54
2022/09/05 14:06:55;;;;;;;;;;;25.60;78.30;;;;;;4970674;28;19926;-56
2022/09/05 14:09:42;;;;;;;;;;;25.60;78.30;;;;;;4954613;28;19930;-56
2022/09/05 14:12:22;;;;;;;;;;;25.60;78.10;;;;;;4970311;28;20350;-51
2022/09/05 14:14:52;;;;;;;;;;;25.70;78.20;;;;;;4962245;28;20286;-51
2022/09/05 14:17:52;;;;;;;;;;;25.70;78.10;;;;;;4970994;28;19930;-53
2022/09/05 14:23:12;;;;;;;;;;;25.80;77.90;;;;;;4972549;28;20463;-53
2022/09/05 14:25:46;;;;;;;;;;;25.80;77.80;;;;;;4976631;28;19945;-50
2022/09/05 14:28:17;;;;;;;;;;;25.90;77.80;;;;;;4968284;28;20207;-51
2022/09/05 14:30:49;;;;;;;;;;;25.90;77.70;;;;;;4964779;28;19937;-52
2022/09/05 14:33:38;;;;;;;;;;;26.00;77.70;;;;;;4972741;28;19956;-54
2022/09/05 14:36:31;;;;;;;;;;;26.00;77.60;;;;;;4966323;28;20394;-55
2022/09/05 14:39:29;;;;;;;;;;;26.10;77.50;;;;;;4965732;28;19930;-53
2022/09/05 14:42:09;;;;;;;;;;;26.10;77.50;;;;;;4959417;28;19930;-49
2022/09/05 14:44:51;;;;;;;;;;;26.10;77.40;;;;;;4970082;28;19929;-50
2022/09/05 14:47:26;;;;;;;;;;;26.10;77.40;;;;;;4976922;28;19926;-56
2022/09/05 14:50:05;;;;;;;;;;;26.20;77.40;;;;;;4967322;28;19930;-54
2022/09/05 14:52:34;;;;;;;;;;;26.20;77.30;;;;;;4953487;28;19934;-54
2022/09/05 14:55:15;;;;;;;;;;;26.30;77.30;;;;;;4966927;28;20305;-56
2022/09/05 14:57:46;;;;;;;;;;;26.30;77.20;;;;;;4976629;28;19934;-53
2022/09/05 15:00:46;;;;;;;;;;;26.30;77.30;;;;;;4947244;28;19934;-52
2022/09/05 15:03:37;;;;;;;;;;;26.10;77.30;;;;;;4967062;28;19937;-51
2022/09/05 15:06:24;;;;;;;;;;;26.00;77.50;;;;;;4969438;28;19930;-53
2022/09/05 15:09:01;;;;;;;;;;;25.90;77.70;;;;;;4971443;28;19929;-57
2022/09/05 15:11:48;;;;;;;;;;;25.80;77.80;;;;;;4968334;28;19930;-54
2022/09/05 15:14:35;;;;;;;;;;;25.70;78.00;;;;;;4972710;28;19926;-54
2022/09/05 15:17:04;;;;;;;;;;;25.70;78.10;;;;;;4969447;28;20033;-52
2022/09/05 15:19:46;;;;;;;;;;;25.60;78.20;;;;;;4981099;28;19941;-54
2022/09/05 15:22:32;;;;;;;;;;;25.60;78.20;;;;;;4963502;28;19936;-52
2022/09/05 15:25:18;;;;;;;;;;;25.60;78.30;;;;;;4969949;28;19942;-53
2022/09/05 15:27:45;;;;;;;;;;;25.60;78.40;;;;;;4953475;28;19934;-54
2022/09/05 15:30:17;;;;;;;;;;;25.50;78.30;;;;;;4964320;28;19937;-57
2022/09/05 15:32:44;;;;;;;;;;;25.50;78.40;;;;;;4954700;28;19930;-55
2022/09/05 15:35:32;;;;;;;;;;;25.50;78.50;;;;;;4967862;28;19926;-58
2022/09/05 15:37:59;;;;;;;;;;;25.50;78.50;;;;;;4948539;28;20432;-55
2022/09/05 15:40:27;;;;;;;;;;;25.50;78.50;;;;;;4969553;28;19985;-54
2022/09/05 15:42:59;;;;;;;;;;;25.40;78.50;;;;;;4969150;28;20398;-51